createdAt,value
2018-11-14T00:01:14.007Z,7.80
2018-11-14T00:03:42.838Z,7.90
2018-11-14T00:06:11.693Z,7.80
2018-11-14T00:08:41.259Z,7.70
2018-11-14T00:11:10.165Z,7.70
2018-11-14T00:13:39.022Z,7.70
2018-11-14T00:16:07.866Z,7.90
2018-11-14T00:18:37.471Z,7.80
2018-11-14T00:21:06.322Z,7.80
2018-11-14T00:23:35.151Z,7.80
2018-11-14T00:26:04.719Z,7.80
2018-11-14T00:28:33.614Z,7.90
2018-11-14T00:31:03.119Z,7.90
2018-11-14T00:33:31.963Z,7.80
2018-11-14T00:36:00.793Z,7.80
2018-11-14T00:38:29.635Z,7.80
2018-11-14T00:40:58.489Z,7.70
2018-11-14T00:43:27.311Z,7.70
2018-11-14T00:45:56.890Z,7.60
2018-11-14T00:48:25.725Z,7.60
2018-11-14T00:50:54.553Z,7.60
2018-11-14T00:53:23.370Z,7.60
2018-11-14T00:55:52.224Z,7.50
2018-11-14T00:58:21.050Z,7.60
2018-11-14T01:00:50.630Z,7.50
2018-11-14T01:03:19.454Z,7.50
2018-11-14T01:05:48.295Z,7.50
2018-11-14T01:08:17.122Z,7.40
2018-11-14T01:10:45.970Z,7.50
2018-11-14T01:13:14.947Z,7.60
2018-11-14T01:15:43.634Z,7.50
2018-11-14T01:18:12.462Z,7.50
2018-11-14T01:20:41.286Z,7.40
2018-11-14T01:23:10.114Z,7.50
2018-11-14T01:25:39.174Z,7.50
2018-11-14T01:28:07.769Z,7.40
2018-11-14T01:30:36.606Z,7.50
2018-11-14T01:33:05.439Z,7.40
2018-11-14T01:35:34.267Z,7.50
2018-11-14T01:38:03.083Z,7.40
2018-11-14T01:40:32.655Z,7.40
2018-11-14T01:43:01.480Z,7.40
2018-11-14T01:45:31.051Z,7.40
2018-11-14T01:47:59.890Z,7.50
2018-11-14T01:50:28.717Z,7.40
2018-11-14T01:52:57.551Z,7.30
2018-11-14T01:55:27.124Z,7.10
2018-11-14T01:57:55.955Z,7.10
2018-11-14T02:00:25.515Z,7.10
2018-11-14T02:02:54.337Z,7.00
2018-11-14T02:05:23.160Z,7.00
2018-11-14T02:07:51.992Z,7.00
2018-11-14T02:10:20.833Z,7.00
2018-11-14T02:12:49.653Z,7.00
2018-11-14T02:15:18.541Z,6.90
2018-11-14T02:17:47.374Z,6.90
2018-11-14T02:20:16.943Z,6.90
2018-11-14T02:22:45.790Z,7.00
2018-11-14T02:25:14.633Z,7.10
2018-11-14T02:27:43.456Z,7.10
2018-11-14T02:30:13.045Z,7.10
2018-11-14T02:32:41.889Z,7.20
2018-11-14T02:35:10.732Z,7.30
2018-11-14T02:37:40.303Z,7.30
2018-11-14T02:40:09.134Z,7.40
2018-11-14T02:45:07.419Z,7.50
2018-11-14T02:47:36.997Z,7.50
2018-11-14T02:50:05.832Z,7.60
2018-11-14T02:52:34.667Z,7.60
2018-11-14T02:55:03.502Z,7.60
2018-11-14T02:57:33.079Z,7.60
2018-11-14T03:00:01.904Z,7.60
2018-11-14T03:02:30.741Z,7.60
2018-11-14T03:04:59.595Z,7.70
2018-11-14T03:07:28.420Z,7.60
2018-11-14T03:09:57.249Z,7.60
2018-11-14T03:12:26.147Z,7.60
2018-11-14T03:14:54.916Z,7.50
2018-11-14T03:17:23.750Z,7.50
2018-11-14T03:19:52.579Z,7.50
2018-11-14T03:22:21.414Z,7.60
2018-11-14T03:24:50.246Z,7.60
2018-11-14T03:27:19.072Z,7.60
2018-11-14T03:29:48.665Z,7.50
2018-11-14T03:32:17.509Z,7.40
2018-11-14T03:34:46.347Z,7.40
2018-11-14T03:37:15.942Z,7.30
2018-11-14T03:39:44.761Z,7.40
2018-11-14T03:42:13.619Z,7.40
2018-11-14T03:44:42.441Z,7.30
2018-11-14T03:47:11.272Z,7.20
2018-11-14T03:49:40.095Z,7.20
2018-11-14T03:52:08.931Z,7.10
2018-11-14T03:54:37.762Z,7.10
2018-11-14T03:57:06.597Z,7.00
2018-11-14T03:59:35.436Z,7.00
2018-11-14T04:02:04.264Z,6.90
2018-11-14T04:04:33.117Z,6.90
2018-11-14T04:09:32.189Z,6.80
2018-11-14T04:12:00.972Z,6.80
2018-11-14T04:14:29.801Z,6.80
2018-11-14T04:16:58.622Z,6.70
2018-11-14T04:19:27.458Z,6.60
2018-11-14T04:21:56.283Z,6.50
2018-11-14T04:24:25.856Z,6.50
2018-11-14T04:26:54.689Z,6.60
2018-11-14T04:29:23.532Z,6.60
2018-11-14T04:31:52.369Z,6.50
2018-11-14T04:34:21.208Z,6.40
2018-11-14T04:36:50.041Z,6.40
2018-11-14T04:39:19.635Z,6.40
2018-11-14T04:41:48.460Z,6.30
2018-11-14T04:44:17.297Z,6.30
2018-11-14T04:46:46.128Z,6.30
2018-11-14T04:49:14.952Z,6.30
2018-11-14T04:51:43.781Z,6.30
2018-11-14T04:54:12.622Z,6.30
2018-11-14T04:56:41.472Z,6.50
2018-11-14T04:59:10.311Z,6.50
2018-11-14T05:01:39.157Z,6.50
2018-11-14T05:04:07.994Z,6.40
2018-11-14T05:06:36.823Z,6.40
2018-11-14T05:09:06.423Z,6.40
2018-11-14T05:11:35.996Z,6.40
2018-11-14T05:14:04.839Z,6.60
2018-11-14T05:16:33.680Z,6.50
2018-11-14T05:19:02.529Z,6.40
2018-11-14T05:21:31.365Z,6.40
2018-11-14T05:24:00.211Z,6.40
2018-11-14T05:26:29.027Z,6.30
2018-11-14T05:28:57.856Z,6.30
2018-11-14T05:31:26.711Z,6.30
2018-11-14T05:33:55.553Z,6.50
2018-11-14T05:36:24.387Z,6.50
2018-11-14T05:38:53.229Z,6.50
2018-11-14T05:41:22.060Z,6.40
2018-11-14T05:43:50.900Z,6.40
2018-11-14T05:46:19.744Z,6.40
2018-11-14T05:48:48.597Z,6.50
2018-11-14T05:51:17.436Z,6.60
2018-11-14T05:53:46.282Z,6.70
2018-11-14T05:56:15.119Z,6.80
2018-11-14T05:58:43.962Z,6.70
2018-11-14T06:01:12.811Z,6.50
2018-11-14T06:03:41.664Z,6.50
2018-11-14T06:06:10.494Z,6.60
2018-11-14T06:08:40.079Z,6.60
2018-11-14T06:11:08.923Z,6.60
2018-11-14T06:13:37.751Z,6.60
2018-11-14T06:16:06.610Z,6.50
2018-11-14T06:18:35.435Z,6.70
2018-11-14T06:21:04.290Z,6.60
2018-11-14T06:23:33.147Z,6.70
2018-11-14T06:26:02.717Z,6.60
2018-11-14T06:28:31.558Z,6.70
2018-11-14T06:31:00.405Z,6.50
2018-11-14T06:33:29.235Z,6.50
2018-11-14T06:35:58.068Z,6.60
2018-11-14T06:38:26.901Z,6.60
2018-11-14T06:40:55.736Z,6.60
2018-11-14T06:43:24.579Z,6.60
2018-11-14T06:45:53.425Z,6.60
2018-11-14T06:48:22.262Z,6.60
2018-11-14T06:50:51.100Z,6.60
2018-11-14T06:53:19.935Z,6.50
2018-11-14T06:55:48.759Z,6.50
2018-11-14T06:58:17.596Z,6.50
2018-11-14T07:00:46.444Z,6.50
2018-11-14T07:03:15.285Z,6.50
2018-11-14T07:05:44.272Z,6.60
2018-11-14T07:08:12.955Z,6.70
2018-11-14T07:10:42.527Z,6.70
2018-11-14T07:13:11.375Z,6.80
2018-11-14T07:15:40.221Z,6.80
2018-11-14T07:18:09.063Z,6.80
2018-11-14T07:20:37.905Z,7.00
2018-11-14T07:23:06.744Z,6.90
2018-11-14T07:25:35.586Z,6.90
2018-11-14T07:28:04.430Z,7.00
2018-11-14T07:30:33.269Z,7.10
2018-11-14T07:33:02.102Z,7.10
2018-11-14T07:35:30.942Z,7.10
2018-11-14T07:37:59.822Z,7.10
2018-11-14T07:40:28.606Z,7.10
2018-11-14T07:42:57.438Z,7.10
2018-11-14T07:45:26.280Z,7.10
2018-11-14T07:47:55.141Z,7.10
2018-11-14T07:50:23.982Z,7.20
2018-11-14T07:52:52.827Z,7.20
2018-11-14T07:55:21.694Z,7.20
2018-11-14T07:57:50.524Z,7.20
2018-11-14T08:00:20.104Z,7.20
2018-11-14T08:02:48.937Z,7.20
2018-11-14T08:05:17.765Z,7.20
2018-11-14T08:07:46.622Z,7.20
2018-11-14T08:10:15.445Z,7.20
2018-11-14T08:12:44.278Z,7.20
2018-11-14T08:15:13.114Z,7.30
2018-11-14T08:17:41.950Z,7.30
2018-11-14T08:20:10.813Z,7.30
2018-11-14T08:22:39.666Z,7.40
2018-11-14T08:25:08.555Z,7.40
2018-11-14T08:27:37.320Z,7.50
2018-11-14T08:30:06.169Z,7.50
2018-11-14T08:32:34.994Z,7.60
2018-11-14T08:35:03.836Z,7.60
2018-11-14T08:37:32.678Z,7.60
2018-11-14T08:40:01.515Z,7.60
2018-11-14T08:42:30.359Z,7.60
2018-11-14T08:44:59.200Z,7.70
2018-11-14T08:47:28.030Z,7.80
2018-11-14T08:49:56.867Z,7.90
2018-11-14T08:52:25.953Z,7.90
2018-11-14T08:54:54.751Z,7.80
2018-11-14T08:57:23.589Z,7.90
2018-11-14T08:59:52.427Z,7.90
2018-11-14T09:02:21.268Z,8.00
2018-11-14T09:04:50.112Z,8.10
2018-11-14T09:07:18.952Z,8.10
2018-11-14T09:09:48.524Z,8.20
2018-11-14T09:12:17.447Z,8.30
2018-11-14T09:14:46.234Z,8.30
2018-11-14T09:17:15.039Z,8.40
2018-11-14T09:19:44.620Z,8.50
2018-11-14T09:22:13.473Z,8.60
2018-11-14T09:24:42.310Z,8.80
2018-11-14T09:27:11.884Z,8.80
2018-11-14T09:29:40.713Z,8.90
2018-11-14T09:32:09.561Z,8.80
2018-11-14T09:34:38.408Z,8.90
2018-11-14T09:37:09.095Z,8.80
2018-11-14T09:39:37.292Z,8.90
2018-11-14T09:42:06.144Z,9.00
2018-11-14T09:44:34.986Z,9.00
2018-11-14T09:47:04.573Z,8.90
2018-11-14T09:49:33.369Z,8.80
2018-11-14T09:52:02.206Z,8.90
2018-11-14T09:54:31.032Z,9.00
2018-11-14T09:56:59.918Z,9.00
2018-11-14T09:59:28.684Z,9.00
2018-11-14T10:01:57.604Z,8.90
2018-11-14T10:04:26.452Z,9.00
2018-11-14T10:06:55.288Z,8.90
2018-11-14T10:09:24.855Z,9.00
2018-11-14T10:11:53.683Z,9.10
2018-11-14T10:14:23.253Z,9.00
2018-11-14T10:16:52.088Z,9.00
2018-11-14T10:19:20.936Z,8.90
2018-11-14T10:21:49.764Z,9.00
2018-11-14T10:24:19.340Z,9.00
2018-11-14T10:26:48.184Z,9.10
2018-11-14T10:29:17.034Z,9.20
2018-11-14T10:31:45.931Z,9.30
2018-11-14T10:34:14.730Z,9.30
2018-11-14T10:36:43.576Z,9.40
2018-11-14T10:39:12.405Z,9.40
2018-11-14T10:41:41.231Z,9.60
2018-11-14T10:44:10.069Z,9.50
2018-11-14T10:46:39.642Z,9.50
2018-11-14T10:49:08.474Z,9.50
2018-11-14T10:51:38.038Z,9.50
2018-11-14T10:54:06.873Z,9.70
2018-11-14T10:56:36.460Z,9.80
2018-11-14T10:59:05.297Z,9.70
2018-11-14T11:01:34.133Z,9.70
2018-11-14T11:04:02.976Z,9.80
2018-11-14T11:06:31.806Z,9.80
2018-11-14T11:09:00.652Z,10.00
2018-11-14T11:11:29.485Z,10.00
2018-11-14T11:13:58.372Z,9.90
2018-11-14T11:16:27.160Z,10.10
2018-11-14T11:21:26.166Z,10.00
2018-11-14T11:23:55.025Z,9.90
2018-11-14T11:26:23.843Z,9.80
2018-11-14T11:28:52.673Z,10.00
2018-11-14T11:31:21.506Z,10.30
2018-11-14T11:33:50.345Z,10.40
2018-11-14T11:36:19.942Z,10.50
2018-11-14T11:38:49.606Z,10.60
2018-11-14T11:41:18.412Z,10.50
2018-11-14T11:43:47.244Z,10.50
2018-11-14T11:46:16.102Z,10.30
2018-11-14T11:48:44.963Z,10.10
2018-11-14T11:51:13.841Z,10.00
2018-11-14T11:53:43.376Z,9.90
2018-11-14T11:56:12.257Z,10.00
2018-11-14T11:58:41.106Z,10.10
2018-11-14T12:01:09.946Z,10.30
2018-11-14T12:03:38.776Z,10.40
2018-11-14T12:06:07.815Z,10.60
2018-11-14T12:08:36.461Z,10.80
2018-11-14T12:11:05.300Z,10.90
2018-11-14T12:13:34.198Z,11.00
2018-11-14T12:16:03.048Z,10.70
2018-11-14T12:18:32.552Z,10.50
2018-11-14T12:21:01.394Z,10.50
2018-11-14T12:23:30.287Z,10.40
2018-11-14T12:25:59.090Z,10.40
2018-11-14T12:28:27.930Z,10.30
2018-11-14T12:30:56.916Z,10.20
2018-11-14T12:33:25.615Z,9.90
2018-11-14T12:35:54.445Z,9.80
2018-11-14T12:38:23.281Z,9.90
2018-11-14T12:40:52.125Z,9.90
2018-11-14T12:43:20.969Z,9.90
2018-11-14T12:45:49.879Z,9.70
2018-11-14T12:48:18.675Z,9.60
2018-11-14T12:50:48.258Z,9.60
2018-11-14T12:53:17.096Z,9.60
2018-11-14T12:55:45.940Z,9.60
2018-11-14T12:58:14.776Z,9.70
2018-11-14T13:00:43.612Z,9.70
2018-11-14T13:03:12.458Z,9.70
2018-11-14T13:05:41.288Z,9.60
2018-11-14T13:08:10.120Z,9.50
2018-11-14T13:10:38.964Z,9.40
2018-11-14T13:13:07.800Z,9.30
2018-11-14T13:15:36.650Z,9.20
2018-11-14T13:18:05.506Z,9.30
2018-11-14T13:20:34.353Z,9.30
2018-11-14T13:23:03.920Z,9.30
2018-11-14T13:25:32.768Z,9.30
2018-11-14T13:28:01.676Z,9.30
2018-11-14T13:30:31.218Z,9.20
2018-11-14T13:33:00.094Z,9.20
2018-11-14T13:35:28.934Z,9.10
2018-11-14T13:37:57.784Z,9.10
2018-11-14T13:40:26.620Z,9.10
2018-11-14T13:42:55.509Z,9.10
2018-11-14T13:45:24.323Z,9.10
2018-11-14T13:47:53.178Z,9.10
2018-11-14T13:50:22.132Z,9.10
2018-11-14T13:52:50.852Z,9.00
2018-11-14T13:55:20.459Z,9.10
2018-11-14T13:57:49.300Z,9.20
2018-11-14T14:00:18.133Z,9.20
2018-11-14T14:02:47.722Z,9.20
2018-11-14T14:05:17.295Z,9.20
2018-11-14T14:07:46.138Z,9.30
2018-11-14T14:10:15.722Z,9.10
2018-11-14T14:12:44.547Z,9.20
2018-11-14T14:15:13.390Z,9.30
2018-11-14T14:17:42.234Z,9.20
2018-11-14T14:20:11.077Z,9.30
2018-11-14T14:22:39.933Z,9.30
2018-11-14T14:25:08.779Z,9.30
2018-11-14T14:27:37.614Z,9.20
2018-11-14T14:30:06.444Z,9.10
2018-11-14T14:32:35.278Z,9.10
2018-11-14T14:35:04.110Z,9.00
2018-11-14T14:37:32.959Z,8.90
2018-11-14T14:40:01.816Z,8.90
2018-11-14T14:42:30.653Z,8.80
2018-11-14T14:44:59.495Z,8.70
2018-11-14T14:47:28.335Z,8.70
2018-11-14T14:49:57.166Z,8.60
2018-11-14T14:52:26.744Z,8.50
2018-11-14T14:54:55.578Z,8.50
2018-11-14T14:57:24.417Z,8.50
2018-11-14T14:59:53.276Z,8.50
2018-11-14T15:02:22.096Z,8.40
2018-11-14T15:04:50.932Z,8.40
2018-11-14T15:07:19.799Z,8.30
2018-11-14T15:09:49.386Z,8.20
2018-11-14T15:12:18.219Z,8.30
2018-11-14T15:14:47.064Z,8.30
2018-11-14T15:17:15.933Z,8.20
2018-11-14T15:19:44.772Z,8.20
2018-11-14T15:22:13.615Z,8.20
2018-11-14T15:24:42.453Z,8.10
2018-11-14T15:27:11.356Z,8.10
2018-11-14T15:29:40.148Z,8.20
2018-11-14T15:32:08.958Z,8.30
2018-11-14T15:34:37.809Z,8.30
2018-11-14T15:37:06.649Z,8.10
2018-11-14T15:39:35.480Z,8.10
2018-11-14T15:42:04.326Z,8.20
2018-11-14T15:44:33.192Z,8.30
2018-11-14T15:47:02.017Z,8.40
2018-11-14T15:49:30.866Z,8.50
2018-11-14T15:51:59.718Z,8.50
2018-11-14T15:54:29.310Z,8.50
2018-11-14T15:56:58.141Z,8.40
2018-11-14T15:59:26.980Z,8.40
2018-11-14T16:01:56.569Z,8.40
2018-11-14T16:04:25.414Z,8.30
2018-11-14T16:06:54.259Z,8.20
2018-11-14T16:09:23.085Z,8.10
2018-11-14T16:11:52.664Z,8.00
2018-11-14T16:14:21.498Z,8.00
2018-11-14T16:16:50.341Z,7.90
2018-11-14T16:19:19.182Z,7.90
2018-11-14T16:21:48.023Z,7.90
2018-11-14T16:24:16.914Z,7.80
2018-11-14T16:26:45.717Z,7.90
2018-11-14T16:29:15.290Z,7.80
2018-11-14T16:31:44.248Z,7.90
2018-11-14T16:34:12.983Z,7.90
2018-11-14T16:36:41.826Z,7.80
2018-11-14T16:39:10.670Z,7.70
2018-11-14T16:41:39.523Z,7.80
2018-11-14T16:44:08.372Z,7.80
2018-11-14T16:46:37.217Z,7.80
2018-11-14T16:49:06.073Z,7.80
2018-11-14T16:51:35.743Z,7.90
2018-11-14T16:54:04.575Z,8.00
2018-11-14T16:56:33.495Z,8.00
2018-11-14T16:59:02.329Z,8.00
2018-11-14T17:01:31.178Z,8.10
2018-11-14T17:04:00.033Z,8.00
2018-11-14T17:06:28.877Z,8.00
2018-11-14T17:08:58.451Z,8.10
2018-11-14T17:11:27.285Z,8.10
2018-11-14T17:13:56.897Z,8.10
2018-11-14T17:16:25.756Z,8.10
2018-11-14T17:18:54.594Z,8.10
2018-11-14T17:21:23.433Z,8.10
2018-11-14T17:23:52.283Z,8.10
2018-11-14T17:26:21.181Z,8.10
2018-11-14T17:28:49.952Z,8.10
2018-11-14T17:31:18.809Z,8.10
2018-11-14T17:33:48.401Z,8.10
2018-11-14T17:36:17.238Z,8.20
2018-11-14T17:38:46.070Z,8.10
2018-11-14T17:41:14.911Z,8.10
2018-11-14T17:43:43.744Z,8.20
2018-11-14T17:46:12.593Z,8.10
2018-11-14T17:48:41.419Z,8.20
2018-11-14T17:51:10.255Z,8.10
2018-11-14T17:53:39.093Z,8.10
2018-11-14T17:56:07.935Z,8.10
2018-11-14T17:58:36.784Z,8.10
2018-11-14T18:01:05.664Z,8.10
2018-11-14T18:03:34.447Z,8.10
2018-11-14T18:06:03.370Z,8.10
2018-11-14T18:08:32.952Z,8.20
2018-11-14T18:11:01.784Z,8.20
2018-11-14T18:13:30.640Z,8.10
2018-11-14T18:15:59.506Z,8.10
2018-11-14T18:18:28.312Z,8.00
2018-11-14T18:20:57.167Z,8.00
2018-11-14T18:23:26.048Z,8.00
2018-11-14T18:25:54.840Z,7.90
2018-11-14T18:28:23.693Z,7.90
2018-11-14T18:30:53.271Z,7.90
2018-11-14T18:33:22.114Z,7.90
2018-11-14T18:35:50.958Z,7.90
2018-11-14T18:38:19.805Z,7.90
2018-11-14T18:40:48.635Z,7.90
2018-11-14T18:43:17.501Z,7.90
2018-11-14T18:45:46.383Z,8.10
2018-11-14T18:48:15.925Z,8.10
2018-11-14T18:50:44.764Z,8.10
2018-11-14T18:53:13.596Z,8.20
2018-11-14T18:55:42.437Z,8.10
2018-11-14T18:58:11.282Z,8.00
2018-11-14T19:00:40.898Z,8.00
2018-11-14T19:03:09.758Z,8.10
2018-11-14T19:05:38.607Z,8.10
2018-11-14T19:08:07.445Z,8.00
2018-11-14T19:10:36.285Z,8.00
2018-11-14T19:13:05.144Z,8.10
2018-11-14T19:15:33.987Z,8.20
2018-11-14T19:18:02.823Z,8.20
2018-11-14T19:20:31.680Z,8.20
2018-11-14T19:23:00.668Z,8.10
2018-11-14T19:25:29.514Z,8.20
2018-11-14T19:27:58.347Z,8.20
2018-11-14T19:30:27.241Z,8.30
2018-11-14T19:32:56.041Z,8.40
2018-11-14T19:35:24.902Z,8.40
2018-11-14T19:37:53.753Z,8.40
2018-11-14T19:40:22.601Z,8.40
2018-11-14T19:42:51.439Z,8.30
2018-11-14T19:45:20.306Z,8.20
2018-11-14T19:47:49.129Z,8.20
2018-11-14T19:50:18.039Z,8.30
2018-11-14T19:52:46.856Z,8.20
2018-11-14T19:55:15.747Z,8.30
2018-11-14T19:57:44.571Z,8.30
2018-11-14T20:00:13.424Z,8.30
2018-11-14T20:02:42.277Z,8.30
2018-11-14T20:05:11.113Z,8.30
2018-11-14T20:07:39.950Z,8.40
2018-11-14T20:10:08.776Z,8.40
2018-11-14T20:12:37.817Z,8.40
2018-11-14T20:15:06.632Z,8.40
2018-11-14T20:17:35.491Z,8.40
2018-11-14T20:20:04.334Z,8.40
2018-11-14T20:22:33.173Z,8.40
2018-11-14T20:25:02.032Z,8.30
2018-11-14T20:27:30.877Z,8.30
2018-11-14T20:29:59.759Z,8.40
2018-11-14T20:32:28.612Z,8.30
2018-11-14T20:34:58.217Z,8.20
2018-11-14T20:37:28.700Z,8.20
2018-11-14T20:39:56.636Z,8.30
2018-11-14T20:42:25.477Z,8.30
2018-11-14T20:44:54.304Z,8.40
2018-11-14T20:47:23.149Z,8.30
2018-11-14T20:49:51.988Z,8.30
2018-11-14T20:52:20.833Z,8.30
2018-11-14T20:54:49.683Z,8.30
2018-11-14T20:57:18.529Z,8.30
2018-11-14T20:59:48.116Z,8.30
2018-11-14T21:04:47.113Z,8.40
2018-11-14T21:07:15.956Z,8.50
2018-11-14T21:09:44.839Z,8.50
2018-11-14T21:12:13.688Z,8.40
2018-11-14T21:14:42.559Z,8.40
2018-11-14T21:17:11.393Z,8.40
2018-11-14T21:19:40.244Z,8.40
2018-11-14T21:22:09.076Z,8.30
2018-11-14T21:24:38.666Z,8.30
2018-11-14T21:27:07.510Z,8.20
2018-11-14T21:29:36.418Z,8.30
2018-11-14T21:32:05.979Z,8.30
2018-11-14T21:34:34.792Z,8.20
2018-11-14T21:37:03.625Z,8.30
2018-11-14T21:39:32.475Z,8.20
2018-11-14T21:42:01.303Z,8.30
2018-11-14T21:44:30.217Z,8.30
2018-11-14T21:46:59.071Z,8.20
2018-11-14T21:49:27.898Z,8.20
2018-11-14T21:51:56.736Z,8.20
2018-11-14T21:54:25.565Z,8.10
2018-11-14T21:56:54.435Z,8.10
2018-11-14T21:59:23.226Z,8.10
2018-11-14T22:01:52.804Z,8.00
2018-11-14T22:04:21.640Z,8.00
2018-11-14T22:06:50.482Z,8.10
2018-11-14T22:09:19.356Z,8.10
2018-11-14T22:11:48.192Z,8.00
2018-11-14T22:14:17.032Z,8.10
2018-11-14T22:16:45.877Z,8.10
2018-11-14T22:19:15.467Z,8.00
2018-11-14T22:21:44.294Z,8.10
2018-11-14T22:24:13.157Z,8.10
2018-11-14T22:26:41.997Z,8.10
2018-11-14T22:29:10.840Z,8.10
2018-11-14T22:31:39.726Z,8.10
2018-11-14T22:34:08.521Z,8.20
2018-11-14T22:36:37.367Z,8.10
2018-11-14T22:39:06.201Z,8.20
2018-11-14T22:41:35.789Z,8.10
2018-11-14T22:44:04.642Z,8.10
2018-11-14T22:46:33.470Z,8.10
2018-11-14T22:49:02.300Z,8.20
2018-11-14T22:51:31.136Z,8.20
2018-11-14T22:53:59.969Z,8.20
2018-11-14T22:56:28.801Z,8.20
2018-11-14T22:58:57.657Z,8.10
2018-11-14T23:01:26.507Z,8.20
2018-11-14T23:03:55.353Z,8.10
2018-11-14T23:06:24.202Z,8.10
2018-11-14T23:08:53.781Z,8.10
2018-11-14T23:11:22.620Z,8.10
2018-11-14T23:13:51.459Z,8.20
2018-11-14T23:16:20.292Z,8.20
2018-11-14T23:18:49.132Z,8.20
2018-11-14T23:21:18.712Z,8.20
2018-11-14T23:23:47.565Z,8.20
2018-11-14T23:26:16.415Z,8.20
2018-11-14T23:28:45.253Z,8.30
2018-11-14T23:31:14.092Z,8.20
2018-11-14T23:33:42.946Z,8.30
2018-11-14T23:36:11.780Z,8.20
2018-11-14T23:38:40.616Z,8.30
2018-11-14T23:41:09.676Z,8.30
2018-11-14T23:43:38.274Z,8.30
2018-11-14T23:46:07.112Z,8.30
2018-11-14T23:48:35.948Z,8.30
2018-11-14T23:51:05.616Z,8.30
2018-11-14T23:53:34.413Z,8.30
2018-11-14T23:56:03.261Z,8.30
2018-11-14T23:58:32.098Z,8.30
